sensor_id;sensor_type;location;lat;lon;timestamp;P1;durP1;ratioP1;P2;durP2;ratioP2
19897;SDS011;10111;50.814;4.572;2022-11-14T00:02:07;17.40;;;11.73;;
19897;SDS011;10111;50.814;4.572;2022-11-14T00:04:33;18.43;;;11.17;;
19897;SDS011;10111;50.814;4.572;2022-11-14T00:06:58;19.17;;;11.77;;
19897;SDS011;10111;50.814;4.572;2022-11-14T00:09:27;15.40;;;11.13;;
19897;SDS011;10111;50.814;4.572;2022-11-14T00:11:53;15.90;;;11.73;;
19897;SDS011;10111;50.814;4.572;2022-11-14T00:14:20;18.47;;;12.33;;
19897;SDS011;10111;50.814;4.572;2022-11-14T00:16:46;17.53;;;12.40;;
19897;SDS011;10111;50.814;4.572;2022-11-14T00:19:12;18.07;;;12.53;;
19897;SDS011;10111;50.814;4.572;2022-11-14T00:21:38;16.17;;;11.40;;
19897;SDS011;10111;50.814;4.572;2022-11-14T00:24:03;16.73;;;12.20;;
19897;SDS011;10111;50.814;4.572;2022-11-14T00:26:29;16.77;;;12.37;;
19897;SDS011;10111;50.814;4.572;2022-11-14T00:28:55;14.07;;;10.83;;
19897;SDS011;10111;50.814;4.572;2022-11-14T00:31:21;14.50;;;11.90;;
19897;SDS011;10111;50.814;4.572;2022-11-14T00:33:46;15.50;;;11.67;;
19897;SDS011;10111;50.814;4.572;2022-11-14T00:36:12;17.63;;;12.90;;
19897;SDS011;10111;50.814;4.572;2022-11-14T00:38:38;17.13;;;12.33;;
19897;SDS011;10111;50.814;4.572;2022-11-14T00:41:04;16.17;;;12.23;;
19897;SDS011;10111;50.814;4.572;2022-11-14T00:43:29;18.90;;;13.53;;
19897;SDS011;10111;50.814;4.572;2022-11-14T00:45:55;20.27;;;12.67;;
19897;SDS011;10111;50.814;4.572;2022-11-14T00:48:21;16.03;;;12.33;;
19897;SDS011;10111;50.814;4.572;2022-11-14T00:50:46;17.83;;;11.47;;
19897;SDS011;10111;50.814;4.572;2022-11-14T00:53:12;16.20;;;11.40;;
19897;SDS011;10111;50.814;4.572;2022-11-14T00:55:38;18.10;;;12.17;;
19897;SDS011;10111;50.814;4.572;2022-11-14T00:58:04;17.23;;;12.63;;
19897;SDS011;10111;50.814;4.572;2022-11-14T01:00:29;14.57;;;11.90;;
19897;SDS011;10111;50.814;4.572;2022-11-14T01:02:55;19.43;;;13.67;;
19897;SDS011;10111;50.814;4.572;2022-11-14T01:05:22;14.77;;;12.73;;
19897;SDS011;10111;50.814;4.572;2022-11-14T01:07:49;16.57;;;12.70;;
19897;SDS011;10111;50.814;4.572;2022-11-14T01:10:15;22.73;;;14.40;;
19897;SDS011;10111;50.814;4.572;2022-11-14T01:12:41;19.30;;;13.97;;
19897;SDS011;10111;50.814;4.572;2022-11-14T01:15:07;21.50;;;14.57;;
19897;SDS011;10111;50.814;4.572;2022-11-14T01:17:33;15.73;;;13.33;;
19897;SDS011;10111;50.814;4.572;2022-11-14T01:19:59;17.93;;;13.27;;
19897;SDS011;10111;50.814;4.572;2022-11-14T01:22:24;17.03;;;11.87;;
19897;SDS011;10111;50.814;4.572;2022-11-14T01:24:50;19.43;;;13.40;;
19897;SDS011;10111;50.814;4.572;2022-11-14T01:27:16;18.63;;;13.63;;
19897;SDS011;10111;50.814;4.572;2022-11-14T01:29:41;17.77;;;12.93;;
19897;SDS011;10111;50.814;4.572;2022-11-14T01:32:07;17.30;;;13.53;;
19897;SDS011;10111;50.814;4.572;2022-11-14T01:34:32;17.90;;;13.10;;
19897;SDS011;10111;50.814;4.572;2022-11-14T01:36:58;19.07;;;14.20;;
19897;SDS011;10111;50.814;4.572;2022-11-14T01:39:27;15.97;;;12.10;;
19897;SDS011;10111;50.814;4.572;2022-11-14T01:41:52;17.53;;;13.20;;
19897;SDS011;10111;50.814;4.572;2022-11-14T01:47:17;19.77;;;13.63;;
19897;SDS011;10111;50.814;4.572;2022-11-14T01:49:47;19.77;;;13.07;;
19897;SDS011;10111;50.814;4.572;2022-11-14T01:52:18;18.10;;;12.57;;
19897;SDS011;10111;50.814;4.572;2022-11-14T01:54:48;18.43;;;13.63;;
19897;SDS011;10111;50.814;4.572;2022-11-14T01:57:28;17.97;;;12.23;;
19897;SDS011;10111;50.814;4.572;2022-11-14T01:59:59;18.03;;;12.30;;
19897;SDS011;10111;50.814;4.572;2022-11-14T02:02:35;15.87;;;12.57;;
19897;SDS011;10111;50.814;4.572;2022-11-14T02:05:03;15.50;;;12.57;;
19897;SDS011;10111;50.814;4.572;2022-11-14T02:07:32;15.50;;;12.50;;
19897;SDS011;10111;50.814;4.572;2022-11-14T02:10:01;22.07;;;13.23;;
19897;SDS011;10111;50.814;4.572;2022-11-14T02:12:30;16.40;;;12.27;;
19897;SDS011;10111;50.814;4.572;2022-11-14T02:14:56;17.37;;;12.50;;
19897;SDS011;10111;50.814;4.572;2022-11-14T02:17:23;15.23;;;12.57;;
19897;SDS011;10111;50.814;4.572;2022-11-14T02:19:51;16.90;;;12.17;;
19897;SDS011;10111;50.814;4.572;2022-11-14T02:22:24;15.27;;;11.23;;
19897;SDS011;10111;50.814;4.572;2022-11-14T02:24:49;19.23;;;13.93;;
19897;SDS011;10111;50.814;4.572;2022-11-14T02:27:15;19.83;;;13.00;;
19897;SDS011;10111;50.814;4.572;2022-11-14T02:29:41;19.47;;;13.37;;
19897;SDS011;10111;50.814;4.572;2022-11-14T02:32:07;13.93;;;12.07;;
19897;SDS011;10111;50.814;4.572;2022-11-14T02:34:33;18.90;;;12.73;;
19897;SDS011;10111;50.814;4.572;2022-11-14T02:36:58;19.10;;;12.73;;
19897;SDS011;10111;50.814;4.572;2022-11-14T02:39:24;18.93;;;13.77;;
19897;SDS011;10111;50.814;4.572;2022-11-14T02:41:50;18.43;;;13.07;;
19897;SDS011;10111;50.814;4.572;2022-11-14T02:44:16;19.67;;;14.07;;
19897;SDS011;10111;50.814;4.572;2022-11-14T02:46:42;19.00;;;13.43;;
19897;SDS011;10111;50.814;4.572;2022-11-14T02:49:08;18.50;;;13.87;;
19897;SDS011;10111;50.814;4.572;2022-11-14T02:51:34;17.97;;;14.30;;
19897;SDS011;10111;50.814;4.572;2022-11-14T02:53:59;20.13;;;15.27;;
19897;SDS011;10111;50.814;4.572;2022-11-14T02:56:25;18.40;;;13.67;;
19897;SDS011;10111;50.814;4.572;2022-11-14T02:58:50;20.67;;;15.30;;
19897;SDS011;10111;50.814;4.572;2022-11-14T03:01:16;21.90;;;14.87;;
19897;SDS011;10111;50.814;4.572;2022-11-14T03:03:42;21.87;;;16.40;;
19897;SDS011;10111;50.814;4.572;2022-11-14T03:06:07;24.07;;;16.50;;
19897;SDS011;10111;50.814;4.572;2022-11-14T03:08:33;23.60;;;16.50;;
19897;SDS011;10111;50.814;4.572;2022-11-14T03:11:06;23.80;;;17.33;;
19897;SDS011;10111;50.814;4.572;2022-11-14T03:13:33;21.13;;;17.20;;
19897;SDS011;10111;50.814;4.572;2022-11-14T03:16:09;26.17;;;17.77;;
19897;SDS011;10111;50.814;4.572;2022-11-14T03:18:36;26.03;;;16.50;;
19897;SDS011;10111;50.814;4.572;2022-11-14T03:21:06;26.67;;;16.57;;
19897;SDS011;10111;50.814;4.572;2022-11-14T03:23:32;23.43;;;16.87;;
19897;SDS011;10111;50.814;4.572;2022-11-14T03:25:59;23.80;;;17.60;;
19897;SDS011;10111;50.814;4.572;2022-11-14T03:28:26;21.77;;;14.87;;
19897;SDS011;10111;50.814;4.572;2022-11-14T03:30:52;21.00;;;14.93;;
19897;SDS011;10111;50.814;4.572;2022-11-14T03:33:17;21.43;;;15.50;;
19897;SDS011;10111;50.814;4.572;2022-11-14T03:35:43;18.70;;;15.13;;
19897;SDS011;10111;50.814;4.572;2022-11-14T03:38:09;22.57;;;15.07;;
19897;SDS011;10111;50.814;4.572;2022-11-14T03:40:38;22.80;;;15.20;;
19897;SDS011;10111;50.814;4.572;2022-11-14T03:43:04;28.53;;;15.93;;
19897;SDS011;10111;50.814;4.572;2022-11-14T03:45:29;20.20;;;15.63;;
19897;SDS011;10111;50.814;4.572;2022-11-14T03:47:55;18.40;;;15.80;;
19897;SDS011;10111;50.814;4.572;2022-11-14T03:50:21;21.93;;;15.53;;
19897;SDS011;10111;50.814;4.572;2022-11-14T03:52:49;24.47;;;18.07;;
19897;SDS011;10111;50.814;4.572;2022-11-14T03:55:15;19.37;;;15.43;;
19897;SDS011;10111;50.814;4.572;2022-11-14T03:57:41;29.10;;;16.33;;
19897;SDS011;10111;50.814;4.572;2022-11-14T04:00:07;26.57;;;16.67;;
19897;SDS011;10111;50.814;4.572;2022-11-14T04:02:33;20.00;;;14.23;;
19897;SDS011;10111;50.814;4.572;2022-11-14T04:05:00;21.43;;;15.43;;
19897;SDS011;10111;50.814;4.572;2022-11-14T04:07:25;20.90;;;15.20;;
19897;SDS011;10111;50.814;4.572;2022-11-14T04:09:51;21.90;;;15.93;;
19897;SDS011;10111;50.814;4.572;2022-11-14T04:12:17;21.87;;;15.27;;
19897;SDS011;10111;50.814;4.572;2022-11-14T04:14:42;18.97;;;14.97;;
19897;SDS011;10111;50.814;4.572;2022-11-14T04:17:08;21.17;;;14.43;;
19897;SDS011;10111;50.814;4.572;2022-11-14T04:19:34;19.10;;;14.50;;
19897;SDS011;10111;50.814;4.572;2022-11-14T04:22:00;18.23;;;14.30;;
19897;SDS011;10111;50.814;4.572;2022-11-14T04:24:25;21.80;;;15.33;;
19897;SDS011;10111;50.814;4.572;2022-11-14T04:26:51;23.47;;;16.27;;
19897;SDS011;10111;50.814;4.572;2022-11-14T04:29:16;21.70;;;16.60;;
19897;SDS011;10111;50.814;4.572;2022-11-14T04:31:42;20.40;;;15.20;;
19897;SDS011;10111;50.814;4.572;2022-11-14T04:34:08;21.67;;;14.90;;
19897;SDS011;10111;50.814;4.572;2022-11-14T04:36:33;21.87;;;15.67;;
19897;SDS011;10111;50.814;4.572;2022-11-14T04:38:59;20.97;;;15.77;;
19897;SDS011;10111;50.814;4.572;2022-11-14T04:41:25;24.17;;;15.80;;
19897;SDS011;10111;50.814;4.572;2022-11-14T04:43:51;25.33;;;16.57;;
19897;SDS011;10111;50.814;4.572;2022-11-14T04:46:16;21.57;;;17.23;;
19897;SDS011;10111;50.814;4.572;2022-11-14T04:48:42;17.83;;;14.70;;
19897;SDS011;10111;50.814;4.572;2022-11-14T04:51:07;20.70;;;16.13;;
19897;SDS011;10111;50.814;4.572;2022-11-14T04:53:33;23.30;;;16.23;;
19897;SDS011;10111;50.814;4.572;2022-11-14T04:55:59;23.90;;;16.07;;
19897;SDS011;10111;50.814;4.572;2022-11-14T04:58:24;22.53;;;16.07;;
19897;SDS011;10111;50.814;4.572;2022-11-14T05:00:50;25.20;;;17.30;;
19897;SDS011;10111;50.814;4.572;2022-11-14T05:03:16;25.20;;;17.03;;
19897;SDS011;10111;50.814;4.572;2022-11-14T05:05:41;26.00;;;16.17;;
19897;SDS011;10111;50.814;4.572;2022-11-14T05:08:07;26.07;;;16.40;;
19897;SDS011;10111;50.814;4.572;2022-11-14T05:10:32;18.27;;;15.13;;
19897;SDS011;10111;50.814;4.572;2022-11-14T05:12:58;22.53;;;14.80;;
19897;SDS011;10111;50.814;4.572;2022-11-14T05:15:24;18.83;;;15.00;;
19897;SDS011;10111;50.814;4.572;2022-11-14T05:17:49;21.17;;;15.40;;
19897;SDS011;10111;50.814;4.572;2022-11-14T05:20:15;23.10;;;16.47;;
19897;SDS011;10111;50.814;4.572;2022-11-14T05:22:41;18.00;;;13.80;;
19897;SDS011;10111;50.814;4.572;2022-11-14T05:25:06;22.13;;;13.33;;
19897;SDS011;10111;50.814;4.572;2022-11-14T05:27:32;22.80;;;14.53;;
19897;SDS011;10111;50.814;4.572;2022-11-14T05:29:58;20.00;;;15.27;;
19897;SDS011;10111;50.814;4.572;2022-11-14T05:32:24;19.80;;;14.57;;
19897;SDS011;10111;50.814;4.572;2022-11-14T05:34:49;22.23;;;14.43;;
19897;SDS011;10111;50.814;4.572;2022-11-14T05:37:15;17.23;;;14.37;;
19897;SDS011;10111;50.814;4.572;2022-11-14T05:39:41;20.07;;;14.43;;
19897;SDS011;10111;50.814;4.572;2022-11-14T05:42:06;22.17;;;15.10;;
19897;SDS011;10111;50.814;4.572;2022-11-14T05:44:32;17.40;;;13.87;;
19897;SDS011;10111;50.814;4.572;2022-11-14T05:46:57;19.83;;;14.27;;
19897;SDS011;10111;50.814;4.572;2022-11-14T05:49:23;19.20;;;13.97;;
19897;SDS011;10111;50.814;4.572;2022-11-14T05:51:49;18.27;;;14.17;;
19897;SDS011;10111;50.814;4.572;2022-11-14T05:54:14;23.27;;;14.60;;
19897;SDS011;10111;50.814;4.572;2022-11-14T05:56:40;19.30;;;15.33;;
19897;SDS011;10111;50.814;4.572;2022-11-14T05:59:05;20.37;;;15.30;;
19897;SDS011;10111;50.814;4.572;2022-11-14T06:01:31;20.37;;;15.63;;
19897;SDS011;10111;50.814;4.572;2022-11-14T06:03:56;21.50;;;16.77;;
19897;SDS011;10111;50.814;4.572;2022-11-14T06:06:22;22.53;;;17.03;;
19897;SDS011;10111;50.814;4.572;2022-11-14T06:08:48;27.70;;;18.83;;
19897;SDS011;10111;50.814;4.572;2022-11-14T06:11:15;29.77;;;19.07;;
19897;SDS011;10111;50.814;4.572;2022-11-14T06:13:42;33.00;;;17.70;;
19897;SDS011;10111;50.814;4.572;2022-11-14T06:16:09;24.67;;;15.33;;
19897;SDS011;10111;50.814;4.572;2022-11-14T06:18:37;22.67;;;14.67;;
19897;SDS011;10111;50.814;4.572;2022-11-14T06:21:04;22.87;;;16.53;;
19897;SDS011;10111;50.814;4.572;2022-11-14T06:23:32;23.77;;;16.03;;
19897;SDS011;10111;50.814;4.572;2022-11-14T06:26:02;19.73;;;14.57;;
19897;SDS011;10111;50.814;4.572;2022-11-14T06:28:29;21.30;;;15.33;;
19897;SDS011;10111;50.814;4.572;2022-11-14T06:30:55;19.57;;;14.20;;
19897;SDS011;10111;50.814;4.572;2022-11-14T06:33:28;31.43;;;15.77;;
19897;SDS011;10111;50.814;4.572;2022-11-14T06:36:01;19.63;;;13.93;;
19897;SDS011;10111;50.814;4.572;2022-11-14T06:38:31;18.43;;;14.23;;
19897;SDS011;10111;50.814;4.572;2022-11-14T06:41:11;25.73;;;14.40;;
19897;SDS011;10111;50.814;4.572;2022-11-14T06:43:39;22.87;;;14.60;;
19897;SDS011;10111;50.814;4.572;2022-11-14T06:46:07;17.67;;;13.37;;
19897;SDS011;10111;50.814;4.572;2022-11-14T06:48:35;23.67;;;17.60;;
19897;SDS011;10111;50.814;4.572;2022-11-14T06:51:01;23.20;;;15.37;;
19897;SDS011;10111;50.814;4.572;2022-11-14T06:53:29;23.50;;;15.03;;
19897;SDS011;10111;50.814;4.572;2022-11-14T06:56:00;42.07;;;15.73;;
19897;SDS011;10111;50.814;4.572;2022-11-14T06:58:28;17.73;;;14.30;;
19897;SDS011;10111;50.814;4.572;2022-11-14T07:01:01;17.57;;;13.90;;
19897;SDS011;10111;50.814;4.572;2022-11-14T07:03:32;16.27;;;14.33;;
19897;SDS011;10111;50.814;4.572;2022-11-14T07:06:02;19.53;;;14.67;;
19897;SDS011;10111;50.814;4.572;2022-11-14T07:08:29;18.37;;;13.17;;
19897;SDS011;10111;50.814;4.572;2022-11-14T07:11:02;24.60;;;15.50;;
19897;SDS011;10111;50.814;4.572;2022-11-14T07:13:32;23.67;;;14.47;;
19897;SDS011;10111;50.814;4.572;2022-11-14T07:15:58;19.77;;;14.10;;
19897;SDS011;10111;50.814;4.572;2022-11-14T07:18:25;22.83;;;14.57;;
19897;SDS011;10111;50.814;4.572;2022-11-14T07:21:00;19.40;;;13.53;;
19897;SDS011;10111;50.814;4.572;2022-11-14T07:23:28;16.27;;;11.80;;
19897;SDS011;10111;50.814;4.572;2022-11-14T07:25:54;25.77;;;13.27;;
19897;SDS011;10111;50.814;4.572;2022-11-14T07:28:20;22.40;;;14.27;;
19897;SDS011;10111;50.814;4.572;2022-11-14T07:30:45;17.13;;;13.73;;
19897;SDS011;10111;50.814;4.572;2022-11-14T07:33:11;25.63;;;14.10;;
19897;SDS011;10111;50.814;4.572;2022-11-14T07:35:40;19.47;;;13.90;;
19897;SDS011;10111;50.814;4.572;2022-11-14T07:38:05;17.13;;;13.50;;
19897;SDS011;10111;50.814;4.572;2022-11-14T07:40:31;22.90;;;16.03;;
19897;SDS011;10111;50.814;4.572;2022-11-14T07:43:00;19.50;;;13.27;;
19897;SDS011;10111;50.814;4.572;2022-11-14T07:45:26;17.43;;;12.87;;
19897;SDS011;10111;50.814;4.572;2022-11-14T07:47:56;21.23;;;13.67;;
19897;SDS011;10111;50.814;4.572;2022-11-14T07:50:24;19.60;;;14.17;;
19897;SDS011;10111;50.814;4.572;2022-11-14T07:52:51;19.70;;;13.83;;
19897;SDS011;10111;50.814;4.572;2022-11-14T07:55:18;19.67;;;14.13;;
19897;SDS011;10111;50.814;4.572;2022-11-14T07:57:44;20.20;;;14.23;;
19897;SDS011;10111;50.814;4.572;2022-11-14T08:00:10;24.27;;;15.27;;
19897;SDS011;10111;50.814;4.572;2022-11-14T08:02:36;20.53;;;15.83;;
19897;SDS011;10111;50.814;4.572;2022-11-14T08:05:02;24.20;;;16.43;;
19897;SDS011;10111;50.814;4.572;2022-11-14T08:07:28;21.23;;;16.13;;
19897;SDS011;10111;50.814;4.572;2022-11-14T08:09:53;21.90;;;14.70;;
19897;SDS011;10111;50.814;4.572;2022-11-14T08:12:19;21.07;;;15.67;;
19897;SDS011;10111;50.814;4.572;2022-11-14T08:14:45;20.03;;;13.93;;
19897;SDS011;10111;50.814;4.572;2022-11-14T08:17:10;20.10;;;14.40;;
19897;SDS011;10111;50.814;4.572;2022-11-14T08:19:36;19.53;;;14.47;;
19897;SDS011;10111;50.814;4.572;2022-11-14T08:22:01;23.27;;;13.93;;
19897;SDS011;10111;50.814;4.572;2022-11-14T08:24:27;21.47;;;14.17;;
19897;SDS011;10111;50.814;4.572;2022-11-14T08:26:53;23.97;;;15.50;;
19897;SDS011;10111;50.814;4.572;2022-11-14T08:29:18;20.07;;;14.10;;
19897;SDS011;10111;50.814;4.572;2022-11-14T08:31:45;22.20;;;14.30;;
19897;SDS011;10111;50.814;4.572;2022-11-14T08:34:11;19.50;;;13.07;;
19897;SDS011;10111;50.814;4.572;2022-11-14T08:36:36;18.73;;;13.77;;
19897;SDS011;10111;50.814;4.572;2022-11-14T08:39:02;21.73;;;13.60;;
19897;SDS011;10111;50.814;4.572;2022-11-14T08:41:28;18.23;;;13.03;;
19897;SDS011;10111;50.814;4.572;2022-11-14T08:43:54;18.90;;;13.40;;
19897;SDS011;10111;50.814;4.572;2022-11-14T08:46:19;20.87;;;13.57;;
19897;SDS011;10111;50.814;4.572;2022-11-14T08:48:45;22.00;;;11.63;;
19897;SDS011;10111;50.814;4.572;2022-11-14T08:51:11;17.87;;;13.23;;
19897;SDS011;10111;50.814;4.572;2022-11-14T08:53:36;15.90;;;11.13;;
19897;SDS011;10111;50.814;4.572;2022-11-14T08:56:02;15.97;;;12.30;;
19897;SDS011;10111;50.814;4.572;2022-11-14T08:58:28;19.80;;;12.83;;
19897;SDS011;10111;50.814;4.572;2022-11-14T09:00:58;18.33;;;12.60;;
19897;SDS011;10111;50.814;4.572;2022-11-14T09:03:25;17.27;;;12.23;;
19897;SDS011;10111;50.814;4.572;2022-11-14T09:05:51;17.67;;;12.43;;
19897;SDS011;10111;50.814;4.572;2022-11-14T09:08:17;15.20;;;11.33;;
19897;SDS011;10111;50.814;4.572;2022-11-14T09:10:42;16.60;;;12.07;;
19897;SDS011;10111;50.814;4.572;2022-11-14T09:13:09;16.93;;;11.37;;
19897;SDS011;10111;50.814;4.572;2022-11-14T09:15:34;18.83;;;13.03;;
19897;SDS011;10111;50.814;4.572;2022-11-14T09:18:00;16.97;;;11.40;;
19897;SDS011;10111;50.814;4.572;2022-11-14T09:20:26;19.40;;;11.97;;
19897;SDS011;10111;50.814;4.572;2022-11-14T09:22:54;18.33;;;12.50;;
19897;SDS011;10111;50.814;4.572;2022-11-14T09:25:22;17.40;;;11.47;;
19897;SDS011;10111;50.814;4.572;2022-11-14T09:27:48;14.53;;;10.83;;
19897;SDS011;10111;50.814;4.572;2022-11-14T09:30:14;18.37;;;11.53;;
19897;SDS011;10111;50.814;4.572;2022-11-14T09:32:39;17.03;;;11.33;;
19897;SDS011;10111;50.814;4.572;2022-11-14T09:35:05;15.33;;;10.97;;
19897;SDS011;10111;50.814;4.572;2022-11-14T09:37:31;15.53;;;11.30;;
19897;SDS011;10111;50.814;4.572;2022-11-14T09:39:56;16.00;;;11.07;;
19897;SDS011;10111;50.814;4.572;2022-11-14T09:45:16;16.10;;;9.87;;
19897;SDS011;10111;50.814;4.572;2022-11-14T09:48:27;15.10;;;11.00;;
19897;SDS011;10111;50.814;4.572;2022-11-14T09:50:48;15.03;;;9.80;;
19897;SDS011;10111;50.814;4.572;2022-11-14T09:53:26;15.83;;;10.97;;
19897;SDS011;10111;50.814;4.572;2022-11-14T09:56:19;17.33;;;10.67;;
19897;SDS011;10111;50.814;4.572;2022-11-14T09:58:49;13.97;;;9.80;;
19897;SDS011;10111;50.814;4.572;2022-11-14T10:01:16;16.97;;;10.47;;
19897;SDS011;10111;50.814;4.572;2022-11-14T10:04:21;16.60;;;10.63;;
19897;SDS011;10111;50.814;4.572;2022-11-14T10:10:05;21.37;;;10.17;;
19897;SDS011;10111;50.814;4.572;2022-11-14T10:12:45;12.33;;;9.50;;
19897;SDS011;10111;50.814;4.572;2022-11-14T10:15:28;15.43;;;9.97;;
19897;SDS011;10111;50.814;4.572;2022-11-14T10:18:15;14.23;;;9.83;;
19897;SDS011;10111;50.814;4.572;2022-11-14T10:24:02;14.23;;;10.63;;
19897;SDS011;10111;50.814;4.572;2022-11-14T10:26:56;14.43;;;10.37;;
19897;SDS011;10111;50.814;4.572;2022-11-14T10:35:23;14.77;;;10.60;;
19897;SDS011;10111;50.814;4.572;2022-11-14T10:40:54;13.43;;;9.27;;
19897;SDS011;10111;50.814;4.572;2022-11-14T10:43:37;15.80;;;9.73;;
19897;SDS011;10111;50.814;4.572;2022-11-14T10:48:50;14.37;;;10.53;;
19897;SDS011;10111;50.814;4.572;2022-11-14T10:51:31;13.23;;;9.53;;
19897;SDS011;10111;50.814;4.572;2022-11-14T10:56:44;15.07;;;10.40;;
19897;SDS011;10111;50.814;4.572;2022-11-14T10:59:11;14.77;;;10.77;;
19897;SDS011;10111;50.814;4.572;2022-11-14T11:04:26;15.23;;;9.70;;
19897;SDS011;10111;50.814;4.572;2022-11-14T11:06:52;17.83;;;10.50;;
19897;SDS011;10111;50.814;4.572;2022-11-14T11:10:02;16.57;;;10.33;;
19897;SDS011;10111;50.814;4.572;2022-11-14T11:12:48;15.17;;;10.30;;
19897;SDS011;10111;50.814;4.572;2022-11-14T11:17:54;17.10;;;12.70;;
19897;SDS011;10111;50.814;4.572;2022-11-14T11:20:26;16.33;;;11.47;;
19897;SDS011;10111;50.814;4.572;2022-11-14T11:25:34;18.07;;;11.43;;
19897;SDS011;10111;50.814;4.572;2022-11-14T11:28:14;15.97;;;10.50;;
19897;SDS011;10111;50.814;4.572;2022-11-14T11:30:55;13.97;;;9.63;;
19897;SDS011;10111;50.814;4.572;2022-11-14T11:33:26;15.03;;;10.47;;
19897;SDS011;10111;50.814;4.572;2022-11-14T11:35:58;12.83;;;8.67;;
19897;SDS011;10111;50.814;4.572;2022-11-14T11:38:30;16.63;;;10.53;;
19897;SDS011;10111;50.814;4.572;2022-11-14T11:41:04;16.20;;;10.50;;
19897;SDS011;10111;50.814;4.572;2022-11-14T11:43:35;18.83;;;10.27;;
19897;SDS011;10111;50.814;4.572;2022-11-14T11:46:04;15.30;;;9.53;;
19897;SDS011;10111;50.814;4.572;2022-11-14T11:48:42;24.43;;;11.67;;
19897;SDS011;10111;50.814;4.572;2022-11-14T11:51:14;17.53;;;11.83;;
19897;SDS011;10111;50.814;4.572;2022-11-14T11:53:43;16.77;;;10.53;;
19897;SDS011;10111;50.814;4.572;2022-11-14T11:56:15;16.63;;;10.83;;
19897;SDS011;10111;50.814;4.572;2022-11-14T11:58:48;16.73;;;10.20;;
19897;SDS011;10111;50.814;4.572;2022-11-14T12:01:16;15.27;;;10.33;;
19897;SDS011;10111;50.814;4.572;2022-11-14T12:03:45;20.30;;;11.50;;
19897;SDS011;10111;50.814;4.572;2022-11-14T12:06:20;17.93;;;11.37;;
19897;SDS011;10111;50.814;4.572;2022-11-14T12:11:27;19.07;;;12.20;;
19897;SDS011;10111;50.814;4.572;2022-11-14T12:30:22;18.73;;;11.30;;
19897;SDS011;10111;50.814;4.572;2022-11-14T12:32:59;18.33;;;11.73;;
19897;SDS011;10111;50.814;4.572;2022-11-14T12:35:31;19.30;;;12.97;;
19897;SDS011;10111;50.814;4.572;2022-11-14T12:37:59;22.60;;;13.60;;
19897;SDS011;10111;50.814;4.572;2022-11-14T12:40:35;19.37;;;12.20;;
19897;SDS011;10111;50.814;4.572;2022-11-14T12:43:04;22.17;;;13.37;;
19897;SDS011;10111;50.814;4.572;2022-11-14T12:50:55;24.13;;;15.60;;
19897;SDS011;10111;50.814;4.572;2022-11-14T12:59:55;35.00;;;19.80;;
19897;SDS011;10111;50.814;4.572;2022-11-14T13:04:36;27.77;;;18.97;;
19897;SDS011;10111;50.814;4.572;2022-11-14T13:09:58;33.17;;;20.17;;
19897;SDS011;10111;50.814;4.572;2022-11-14T13:12:38;31.80;;;19.67;;
19897;SDS011;10111;50.814;4.572;2022-11-14T13:15:28;32.00;;;20.60;;
19897;SDS011;10111;50.814;4.572;2022-11-14T13:18:31;31.10;;;18.67;;
19897;SDS011;10111;50.814;4.572;2022-11-14T13:21:23;34.13;;;20.07;;
19897;SDS011;10111;50.814;4.572;2022-11-14T13:26:45;34.20;;;21.73;;
19897;SDS011;10111;50.814;4.572;2022-11-14T13:32:10;31.83;;;19.60;;
19897;SDS011;10111;50.814;4.572;2022-11-14T13:34:43;30.30;;;19.53;;
19897;SDS011;10111;50.814;4.572;2022-11-14T13:40:20;27.50;;;17.57;;
19897;SDS011;10111;50.814;4.572;2022-11-14T13:43:09;26.37;;;16.47;;
19897;SDS011;10111;50.814;4.572;2022-11-14T13:51:27;23.13;;;14.03;;
19897;SDS011;10111;50.814;4.572;2022-11-14T13:53:54;23.60;;;14.90;;
19897;SDS011;10111;50.814;4.572;2022-11-14T13:59:30;24.30;;;14.03;;
19897;SDS011;10111;50.814;4.572;2022-11-14T14:13:13;18.27;;;11.97;;
19897;SDS011;10111;50.814;4.572;2022-11-14T14:16:03;23.10;;;13.47;;
19897;SDS011;10111;50.814;4.572;2022-11-14T14:21:30;21.87;;;13.33;;
19897;SDS011;10111;50.814;4.572;2022-11-14T14:24:29;20.60;;;12.40;;
19897;SDS011;10111;50.814;4.572;2022-11-14T14:29:53;23.50;;;12.77;;
19897;SDS011;10111;50.814;4.572;2022-11-14T14:32:26;19.87;;;12.87;;
19897;SDS011;10111;50.814;4.572;2022-11-14T14:34:52;21.17;;;12.10;;
19897;SDS011;10111;50.814;4.572;2022-11-14T14:37:24;23.00;;;14.37;;
19897;SDS011;10111;50.814;4.572;2022-11-14T14:39:55;20.97;;;12.70;;
19897;SDS011;10111;50.814;4.572;2022-11-14T14:42:21;18.43;;;12.50;;
19897;SDS011;10111;50.814;4.572;2022-11-14T14:44:47;21.07;;;13.07;;
19897;SDS011;10111;50.814;4.572;2022-11-14T14:47:22;19.40;;;13.43;;
19897;SDS011;10111;50.814;4.572;2022-11-14T14:49:57;22.40;;;13.37;;
19897;SDS011;10111;50.814;4.572;2022-11-14T14:52:29;22.23;;;14.33;;
19897;SDS011;10111;50.814;4.572;2022-11-14T14:54:57;21.23;;;14.07;;
19897;SDS011;10111;50.814;4.572;2022-11-14T14:57:26;19.83;;;13.03;;
19897;SDS011;10111;50.814;4.572;2022-11-14T15:00:04;22.80;;;13.23;;
19897;SDS011;10111;50.814;4.572;2022-11-14T15:02:32;19.40;;;13.00;;
19897;SDS011;10111;50.814;4.572;2022-11-14T15:04:58;20.87;;;13.80;;
19897;SDS011;10111;50.814;4.572;2022-11-14T15:07:25;22.40;;;14.07;;
19897;SDS011;10111;50.814;4.572;2022-11-14T15:09:57;19.67;;;12.60;;
19897;SDS011;10111;50.814;4.572;2022-11-14T15:12:26;18.40;;;12.60;;
19897;SDS011;10111;50.814;4.572;2022-11-14T15:14:54;17.80;;;12.17;;
19897;SDS011;10111;50.814;4.572;2022-11-14T15:17:21;21.63;;;13.77;;
19897;SDS011;10111;50.814;4.572;2022-11-14T15:19:48;21.23;;;13.37;;
19897;SDS011;10111;50.814;4.572;2022-11-14T15:25:02;21.07;;;11.87;;
19897;SDS011;10111;50.814;4.572;2022-11-14T15:27:43;17.27;;;11.63;;
19897;SDS011;10111;50.814;4.572;2022-11-14T15:30:27;18.87;;;11.83;;
19897;SDS011;10111;50.814;4.572;2022-11-14T15:32:59;20.80;;;12.47;;
19897;SDS011;10111;50.814;4.572;2022-11-14T15:35:36;17.87;;;11.60;;
19897;SDS011;10111;50.814;4.572;2022-11-14T15:40:34;17.00;;;11.43;;
19897;SDS011;10111;50.814;4.572;2022-11-14T15:46:00;20.97;;;12.30;;
19897;SDS011;10111;50.814;4.572;2022-11-14T15:48:26;20.80;;;12.57;;
19897;SDS011;10111;50.814;4.572;2022-11-14T15:50:52;18.77;;;12.83;;
19897;SDS011;10111;50.814;4.572;2022-11-14T15:53:22;19.27;;;11.50;;
19897;SDS011;10111;50.814;4.572;2022-11-14T15:55:49;18.63;;;11.27;;
19897;SDS011;10111;50.814;4.572;2022-11-14T15:58:15;19.17;;;11.87;;
19897;SDS011;10111;50.814;4.572;2022-11-14T16:00:43;17.53;;;10.83;;
19897;SDS011;10111;50.814;4.572;2022-11-14T16:03:11;23.50;;;12.70;;
19897;SDS011;10111;50.814;4.572;2022-11-14T16:05:41;16.70;;;11.17;;
19897;SDS011;10111;50.814;4.572;2022-11-14T16:08:09;16.47;;;11.17;;
19897;SDS011;10111;50.814;4.572;2022-11-14T16:10:35;16.63;;;10.27;;
19897;SDS011;10111;50.814;4.572;2022-11-14T16:13:01;14.03;;;10.70;;
19897;SDS011;10111;50.814;4.572;2022-11-14T16:15:26;15.53;;;10.53;;
19897;SDS011;10111;50.814;4.572;2022-11-14T16:17:52;18.77;;;9.97;;
19897;SDS011;10111;50.814;4.572;2022-11-14T16:20:22;15.97;;;10.83;;
19897;SDS011;10111;50.814;4.572;2022-11-14T16:22:52;17.53;;;10.63;;
19897;SDS011;10111;50.814;4.572;2022-11-14T16:25:23;15.53;;;9.83;;